Prater, Kentucky
Current Conditions -  °F | °C
As of 2:30 AM on Saturday 25 Oct 2014 (Local Time) from KSYM Reporting Station
Scattered Clouds Scattered Clouds  
Wind Chill: 40°   Ceiling: Unl
Heat Index: 43°   Visibility: 7mi
Dew Point: 41°   Wind: 5mph
Humidity: 93%   Direction: 190°S
Pressure: 30.07"   Gusts: NA
Location:  38.3543°N, 83.1837°W
Report Text: KSYM 250630Z AUTO 19004KT 7SM FEW025 SCT037 06/05 A3007 RMK AO2
Loading
Personal Weather Stations






























Interactive Weather Map
Tropical Storm Tracking
New forecast layout! Learn more

10-Day Weather Forecast

Advertisements
Track Severe Weather on mobile